createdAt,value
2019-05-25T00:02:09.378Z,9.43
2019-05-25T00:04:41.062Z,6.30
2019-05-25T00:07:12.805Z,6.37
2019-05-25T00:09:48.129Z,6.73
2019-05-25T00:12:17.938Z,9.20
2019-05-25T00:14:50.894Z,6.33
2019-05-25T00:17:22.546Z,9.40
2019-05-25T00:19:54.443Z,12.00
2019-05-25T00:22:26.131Z,13.83
2019-05-25T00:24:57.847Z,11.83
2019-05-25T00:27:29.560Z,9.17
2019-05-25T00:30:01.314Z,11.50
2019-05-25T00:32:33.105Z,10.43
2019-05-25T00:35:05.184Z,8.30
2019-05-25T00:37:36.961Z,21.43
2019-05-25T00:40:09.001Z,7.73
2019-05-25T00:42:40.803Z,5.90
2019-05-25T00:45:12.457Z,8.50
2019-05-25T00:47:44.073Z,14.07
2019-05-25T00:50:15.944Z,11.97
2019-05-25T00:52:47.618Z,20.60
2019-05-25T00:55:19.233Z,13.17
2019-05-25T00:57:50.864Z,17.20
2019-05-25T01:00:22.706Z,8.53
2019-05-25T01:02:54.352Z,9.17
2019-05-25T01:05:26.030Z,14.20
2019-05-25T01:07:57.675Z,9.10
2019-05-25T01:10:29.346Z,17.17
2019-05-25T01:13:00.965Z,7.60
2019-05-25T01:15:32.596Z,8.97
2019-05-25T01:18:04.322Z,11.60
2019-05-25T01:20:35.954Z,9.80
2019-05-25T01:23:07.575Z,11.13
2019-05-25T01:25:39.250Z,10.57
2019-05-25T01:28:10.865Z,9.47
2019-05-25T01:30:42.609Z,12.27
2019-05-25T01:33:14.227Z,17.33
2019-05-25T01:35:45.930Z,12.50
2019-05-25T01:38:17.599Z,14.40
2019-05-25T01:40:49.278Z,13.00
2019-05-25T01:43:20.879Z,12.83
2019-05-25T01:45:52.522Z,15.17
2019-05-25T01:48:24.158Z,15.33
2019-05-25T01:50:58.695Z,11.47
2019-05-25T01:53:30.356Z,12.07
2019-05-25T01:56:02.041Z,11.83
2019-05-25T01:58:33.697Z,13.80
2019-05-25T02:01:05.723Z,18.43
2019-05-25T02:03:37.449Z,19.30
2019-05-25T02:06:09.352Z,20.33
2019-05-25T02:08:41.009Z,11.00
2019-05-25T02:11:12.677Z,10.93
2019-05-25T02:13:44.324Z,11.57
2019-05-25T02:16:16.013Z,18.47
2019-05-25T02:18:47.652Z,15.83
2019-05-25T02:21:19.338Z,12.50
2019-05-25T02:23:50.983Z,16.37
2019-05-25T02:26:22.605Z,17.70
2019-05-25T02:28:54.297Z,13.70
2019-05-25T02:31:25.973Z,16.43
2019-05-25T02:33:57.575Z,12.47
2019-05-25T02:36:29.547Z,15.33
2019-05-25T02:39:01.237Z,12.80
2019-05-25T02:41:33.368Z,12.50
2019-05-25T02:44:05.489Z,11.27
2019-05-25T02:46:37.190Z,19.93
2019-05-25T02:49:08.781Z,12.13
2019-05-25T02:51:40.764Z,9.77
2019-05-25T02:54:12.394Z,9.63
2019-05-25T02:56:44.091Z,14.93
2019-05-25T02:59:15.859Z,13.70
2019-05-25T03:01:47.516Z,12.83
2019-05-25T03:04:19.370Z,16.13
2019-05-25T03:06:52.771Z,14.20
2019-05-25T03:09:26.859Z,14.17
2019-05-25T03:12:00.646Z,16.77
2019-05-25T03:14:32.266Z,13.83
2019-05-25T03:17:03.971Z,14.73
2019-05-25T03:19:35.595Z,11.50
2019-05-25T03:22:07.260Z,18.33
2019-05-25T03:24:38.924Z,13.50
2019-05-25T03:27:10.616Z,15.90
2019-05-25T03:29:42.278Z,14.70
2019-05-25T03:32:14.016Z,17.67
2019-05-25T03:34:45.674Z,10.40
2019-05-25T03:37:17.337Z,11.03
2019-05-25T03:39:49.037Z,12.00
2019-05-25T03:42:20.710Z,17.00
2019-05-25T03:44:52.345Z,14.63
2019-05-25T03:47:24.068Z,14.40
2019-05-25T03:49:55.689Z,14.43
2019-05-25T03:52:27.398Z,15.60
2019-05-25T03:54:59.044Z,9.93
2019-05-25T03:57:30.698Z,7.20
2019-05-25T04:00:02.468Z,7.00
2019-05-25T04:02:34.289Z,13.77
2019-05-25T04:05:06.399Z,15.60
2019-05-25T04:07:38.010Z,11.90
2019-05-25T04:10:09.960Z,8.27
2019-05-25T04:12:41.599Z,16.37
2019-05-25T04:15:13.379Z,14.10
2019-05-25T04:17:45.115Z,9.20
2019-05-25T04:20:16.798Z,12.30
2019-05-25T04:22:48.422Z,10.00
2019-05-25T04:25:20.101Z,16.13
2019-05-25T04:27:51.734Z,13.40
2019-05-25T04:30:24.261Z,17.80
2019-05-25T04:32:55.994Z,11.83
2019-05-25T04:35:27.705Z,17.20
2019-05-25T04:37:59.507Z,16.73
2019-05-25T04:40:31.178Z,12.90
2019-05-25T04:43:02.843Z,10.37
2019-05-25T04:45:34.561Z,16.40
2019-05-25T04:48:06.246Z,15.80
2019-05-25T04:50:37.860Z,18.10
2019-05-25T04:53:09.760Z,13.53
2019-05-25T04:55:41.382Z,15.10
2019-05-25T04:58:13.040Z,14.60
2019-05-25T05:00:45.050Z,11.87
2019-05-25T05:03:16.776Z,14.83
2019-05-25T05:05:48.436Z,10.63
2019-05-25T05:08:20.082Z,12.27
2019-05-25T05:10:51.690Z,20.00
2019-05-25T05:13:23.320Z,15.03
2019-05-25T05:15:54.968Z,13.50
2019-05-25T05:18:26.818Z,9.63
2019-05-25T05:20:58.490Z,14.07
2019-05-25T05:23:30.269Z,8.93
2019-05-25T05:26:01.938Z,15.00
2019-05-25T05:28:33.652Z,12.10
2019-05-25T05:31:05.406Z,13.90
2019-05-25T05:33:37.126Z,9.73
2019-05-25T05:36:10.471Z,12.03
2019-05-25T05:38:43.017Z,13.10
2019-05-25T05:41:17.321Z,10.50
2019-05-25T05:43:49.649Z,11.30
2019-05-25T05:46:23.591Z,12.77
2019-05-25T05:48:56.027Z,15.83
2019-05-25T05:51:28.857Z,13.10
2019-05-25T05:54:03.386Z,7.67
2019-05-25T05:56:35.106Z,7.83
2019-05-25T05:59:06.789Z,14.27
2019-05-25T06:01:38.398Z,10.93
2019-05-25T06:04:10.037Z,9.43
2019-05-25T06:06:41.700Z,12.23
2019-05-25T06:09:13.330Z,15.03
2019-05-25T06:11:45.045Z,11.20
2019-05-25T06:14:16.671Z,9.23
2019-05-25T06:16:48.387Z,10.03
2019-05-25T06:19:20.010Z,17.37
2019-05-25T06:21:51.619Z,14.27
2019-05-25T06:24:23.303Z,10.13
2019-05-25T06:26:54.958Z,7.03
2019-05-25T06:29:26.645Z,11.30
2019-05-25T06:31:58.362Z,12.07
2019-05-25T06:34:30.053Z,5.90
2019-05-25T06:37:01.728Z,9.03
2019-05-25T06:39:33.375Z,16.40
2019-05-25T06:42:05.216Z,8.63
2019-05-25T06:44:36.936Z,13.63
2019-05-25T06:47:08.580Z,10.67
2019-05-25T06:49:40.304Z,16.90
2019-05-25T06:52:12.057Z,11.10
2019-05-25T06:54:43.806Z,12.50
2019-05-25T06:57:15.617Z,19.63
2019-05-25T06:59:47.316Z,11.47
2019-05-25T07:02:22.463Z,12.60
2019-05-25T07:04:52.572Z,10.50
2019-05-25T07:07:26.303Z,14.60
2019-05-25T07:09:58.085Z,9.57
2019-05-25T07:12:29.763Z,6.43
2019-05-25T07:15:01.570Z,11.93
2019-05-25T07:17:33.305Z,7.00
2019-05-25T07:20:05.778Z,9.47
2019-05-25T07:22:37.520Z,13.13
2019-05-25T07:25:09.444Z,7.80
2019-05-25T07:27:41.306Z,5.90
2019-05-25T07:30:14.568Z,10.93
2019-05-25T07:32:46.323Z,6.10
2019-05-25T07:35:18.101Z,11.03
2019-05-25T07:37:49.887Z,6.60
2019-05-25T07:40:21.593Z,8.60
2019-05-25T07:42:53.417Z,8.20
2019-05-25T07:45:25.153Z,5.50
2019-05-25T07:47:57.040Z,17.10
2019-05-25T07:50:28.917Z,6.07
2019-05-25T07:53:00.734Z,7.27
2019-05-25T07:55:32.877Z,6.10
2019-05-25T07:58:16.516Z,12.20
2019-05-25T08:00:38.239Z,7.60
2019-05-25T08:03:10.257Z,5.00
2019-05-25T08:05:42.160Z,4.10
2019-05-25T08:08:13.877Z,8.97
2019-05-25T08:10:45.678Z,6.10
2019-05-25T08:13:17.361Z,4.47
2019-05-25T08:15:49.220Z,5.27
2019-05-25T08:18:21.297Z,6.60
2019-05-25T08:20:53.008Z,6.67
2019-05-25T08:23:24.753Z,5.23
2019-05-25T08:25:56.406Z,8.87
2019-05-25T08:28:32.852Z,4.83
2019-05-25T08:31:01.725Z,6.83
2019-05-25T08:33:33.551Z,4.67
2019-05-25T08:36:05.355Z,5.43
2019-05-25T08:38:37.024Z,7.40
2019-05-25T08:41:08.772Z,4.70
2019-05-25T08:43:40.446Z,8.33
2019-05-25T08:46:12.217Z,5.03
2019-05-25T08:48:43.874Z,12.70
2019-05-25T08:51:15.685Z,4.20
2019-05-25T08:53:47.385Z,10.30
2019-05-25T08:56:19.146Z,11.50
2019-05-25T08:58:51.110Z,4.23
2019-05-25T09:01:23.085Z,4.90
2019-05-25T09:03:54.947Z,5.63
2019-05-25T09:06:26.730Z,3.47
2019-05-25T09:08:58.524Z,5.13
2019-05-25T09:11:30.435Z,5.90
2019-05-25T09:14:02.130Z,4.70
2019-05-25T09:16:33.823Z,11.90
2019-05-25T09:19:05.465Z,4.60
2019-05-25T09:22:02.225Z,6.63
2019-05-25T09:24:15.435Z,2.77
2019-05-25T09:26:47.380Z,5.80
2019-05-25T09:29:20.883Z,6.07
2019-05-25T09:32:38.805Z,4.50
2019-05-25T09:36:18.039Z,3.67
2019-05-25T09:38:49.781Z,4.50
2019-05-25T09:41:23.185Z,4.20
2019-05-25T09:43:55.190Z,7.63
2019-05-25T09:46:26.850Z,5.00
2019-05-25T09:48:58.972Z,6.37
2019-05-25T09:51:32.396Z,5.40
2019-05-25T09:54:06.572Z,6.10
2019-05-25T09:56:38.347Z,7.33
2019-05-25T09:59:19.615Z,8.10
2019-05-25T10:01:45.175Z,3.70
2019-05-25T10:04:31.109Z,7.70
2019-05-25T10:07:03.108Z,6.40
2019-05-25T10:09:34.960Z,5.47
2019-05-25T10:12:08.263Z,6.47
2019-05-25T10:14:39.893Z,4.47
2019-05-25T10:17:11.713Z,4.20
2019-05-25T10:19:43.387Z,3.60
2019-05-25T10:22:15.165Z,5.60
2019-05-25T10:24:47.968Z,6.37
2019-05-25T10:27:19.799Z,3.83
2019-05-25T10:29:52.648Z,3.13
2019-05-25T10:32:24.438Z,6.97
2019-05-25T10:34:56.135Z,4.50
2019-05-25T10:37:28.112Z,5.77
2019-05-25T10:39:59.785Z,8.93
2019-05-25T10:42:31.581Z,7.40
2019-05-25T10:45:06.663Z,9.13
2019-05-25T10:47:42.176Z,5.83
2019-05-25T10:50:15.019Z,6.03
2019-05-25T10:52:47.033Z,3.80
2019-05-25T10:55:20.376Z,4.27
2019-05-25T10:57:52.288Z,3.73
2019-05-25T11:00:24.482Z,3.67
2019-05-25T11:02:56.609Z,4.70
2019-05-25T11:05:28.296Z,4.93
2019-05-25T11:08:04.155Z,3.83
2019-05-25T11:10:35.921Z,4.77
2019-05-25T11:13:12.215Z,8.23
2019-05-25T11:15:45.504Z,6.83
2019-05-25T11:18:17.431Z,7.50
2019-05-25T11:20:49.206Z,9.40
2019-05-25T11:23:21.024Z,3.83
2019-05-25T11:25:52.672Z,4.67
2019-05-25T11:28:27.428Z,5.47
2019-05-25T11:30:59.083Z,4.90
2019-05-25T11:33:31.925Z,5.57
2019-05-25T11:36:03.527Z,5.20
2019-05-25T11:38:35.312Z,5.80
2019-05-25T11:41:07.003Z,5.20
2019-05-25T11:43:38.725Z,13.03
2019-05-25T11:46:10.344Z,5.70
2019-05-25T11:48:42.124Z,4.53
2019-05-25T11:51:14.976Z,5.00
2019-05-25T11:53:51.125Z,3.97
2019-05-25T11:56:22.857Z,4.10
2019-05-25T11:58:54.615Z,8.00
2019-05-25T12:01:27.601Z,5.60
2019-05-25T12:03:59.413Z,5.10
2019-05-25T12:06:35.330Z,3.60
2019-05-25T12:09:08.781Z,8.27
2019-05-25T12:11:40.491Z,8.90
2019-05-25T12:14:12.143Z,5.37
2019-05-25T12:17:15.023Z,6.93
2019-05-25T12:19:50.309Z,4.43
2019-05-25T12:22:22.445Z,7.20
2019-05-25T12:24:54.364Z,5.93
2019-05-25T12:27:26.371Z,5.03
2019-05-25T12:29:58.266Z,6.17
2019-05-25T12:32:29.990Z,6.10
2019-05-25T12:35:23.519Z,10.07
2019-05-25T12:39:18.629Z,9.17
2019-05-25T12:41:23.720Z,7.90
2019-05-25T12:43:55.676Z,6.67
2019-05-25T12:46:31.297Z,5.37
2019-05-25T12:49:03.356Z,5.10
2019-05-25T12:51:36.646Z,4.20
2019-05-25T12:54:08.333Z,3.53
2019-05-25T12:56:40.174Z,7.00
2019-05-25T12:59:12.076Z,5.40
2019-05-25T13:01:43.776Z,10.93
2019-05-25T13:04:15.683Z,9.73
2019-05-25T13:06:47.699Z,7.53
2019-05-25T13:09:19.407Z,5.40
2019-05-25T13:11:51.288Z,5.60
2019-05-25T13:14:23.156Z,5.80
2019-05-25T13:16:55.170Z,5.43
2019-05-25T13:19:26.980Z,9.33
2019-05-25T13:22:00.762Z,8.90
2019-05-25T13:24:43.969Z,5.23
2019-05-25T13:27:20.289Z,6.23
2019-05-25T13:29:52.124Z,6.10
2019-05-25T13:32:46.037Z,6.93
2019-05-25T13:35:17.995Z,6.07
2019-05-25T13:37:49.659Z,9.47
2019-05-25T13:40:21.395Z,5.70
2019-05-25T13:43:37.348Z,5.80
2019-05-25T13:46:28.398Z,7.13
2019-05-25T13:49:12.789Z,3.87
2019-05-25T13:51:46.681Z,6.47
2019-05-25T13:54:20.337Z,9.60
2019-05-25T13:56:52.361Z,7.27
2019-05-25T13:59:24.639Z,6.60
2019-05-25T14:01:56.724Z,5.03
2019-05-25T14:04:28.654Z,4.87
2019-05-25T14:07:01.170Z,10.50
2019-05-25T14:09:34.132Z,8.40
2019-05-25T14:12:06.967Z,6.10
2019-05-25T14:14:38.719Z,4.27
2019-05-25T14:17:10.989Z,6.60
2019-05-25T14:19:43.645Z,5.13
2019-05-25T14:22:15.517Z,5.23
2019-05-25T14:24:47.124Z,5.47
2019-05-25T14:27:18.954Z,5.30
2019-05-25T14:29:50.646Z,8.50
2019-05-25T14:32:22.436Z,3.60
2019-05-25T14:34:54.246Z,8.73
2019-05-25T14:37:26.276Z,6.43
2019-05-25T14:39:58.035Z,7.37
2019-05-25T14:42:29.798Z,7.90
2019-05-25T14:45:01.618Z,4.33
2019-05-25T14:47:36.673Z,4.77
2019-05-25T14:50:08.927Z,17.60
2019-05-25T14:52:43.210Z,8.53
2019-05-25T14:55:14.357Z,5.80
2019-05-25T14:57:46.129Z,4.77
2019-05-25T15:00:18.759Z,6.30
2019-05-25T15:02:50.651Z,7.33
2019-05-25T15:05:22.336Z,9.10
2019-05-25T15:07:54.084Z,8.30
2019-05-25T15:10:25.716Z,6.77
2019-05-25T15:12:57.439Z,6.90
2019-05-25T15:15:29.137Z,6.80
2019-05-25T15:18:00.863Z,7.87
2019-05-25T15:20:32.597Z,9.03
2019-05-25T15:23:04.288Z,7.57
2019-05-25T15:25:36.174Z,4.30
2019-05-25T15:28:07.791Z,6.90
2019-05-25T15:30:39.494Z,5.67
2019-05-25T15:33:11.187Z,6.27
2019-05-25T15:35:44.240Z,6.10
2019-05-25T15:38:17.743Z,5.53
2019-05-25T15:40:49.406Z,3.50
2019-05-25T15:43:21.148Z,9.97
2019-05-25T15:45:52.836Z,9.00
2019-05-25T15:48:26.371Z,6.27
2019-05-25T15:50:58.707Z,5.43
2019-05-25T15:53:37.264Z,6.50
2019-05-25T15:56:09.428Z,10.30
2019-05-25T15:58:51.602Z,5.03
2019-05-25T16:01:23.502Z,5.93
2019-05-25T16:03:55.280Z,7.00
2019-05-25T16:06:26.959Z,5.97
2019-05-25T16:08:58.708Z,11.83
2019-05-25T16:11:32.333Z,7.40
2019-05-25T16:14:03.768Z,6.27
2019-05-25T16:16:35.491Z,5.50
2019-05-25T16:19:07.313Z,3.90
2019-05-25T16:21:39.274Z,8.80
2019-05-25T16:24:10.964Z,4.27
2019-05-25T16:26:49.943Z,6.93
2019-05-25T16:29:29.324Z,3.53
2019-05-25T16:32:01.041Z,8.80
2019-05-25T16:34:33.042Z,3.77
2019-05-25T16:37:05.091Z,9.33
2019-05-25T16:39:36.935Z,4.67
2019-05-25T16:42:08.701Z,10.33
2019-05-25T16:44:40.601Z,3.93
2019-05-25T16:47:12.341Z,7.67
2019-05-25T16:49:44.073Z,4.07
2019-05-25T16:52:15.742Z,8.67
2019-05-25T16:54:47.611Z,6.67
2019-05-25T16:57:19.482Z,3.97
2019-05-25T16:59:51.222Z,5.70
2019-05-25T17:02:22.847Z,4.83
2019-05-25T17:04:54.635Z,3.70
2019-05-25T17:07:26.354Z,5.23
2019-05-25T17:09:58.041Z,3.77
2019-05-25T17:12:29.776Z,4.43
2019-05-25T17:15:01.499Z,2.83
2019-05-25T17:17:34.270Z,6.40
2019-05-25T17:20:07.449Z,4.10
2019-05-25T17:22:39.203Z,8.93
2019-05-25T17:25:12.140Z,4.83
2019-05-25T17:27:43.852Z,9.63
2019-05-25T17:30:19.387Z,3.93
2019-05-25T17:32:51.485Z,6.53
2019-05-25T17:35:26.648Z,4.40
2019-05-25T17:37:59.277Z,5.77
2019-05-25T17:40:32.232Z,5.27
2019-05-25T17:43:04.003Z,5.33
2019-05-25T17:45:36.895Z,3.73
2019-05-25T17:48:08.736Z,4.07
2019-05-25T17:50:40.996Z,9.17
2019-05-25T17:53:12.702Z,6.20
2019-05-25T17:55:44.437Z,7.50
2019-05-25T17:58:16.294Z,8.77
2019-05-25T18:00:51.105Z,6.17
2019-05-25T18:03:23.063Z,12.53
2019-05-25T18:05:54.796Z,4.27
2019-05-25T18:08:26.586Z,7.30
2019-05-25T18:10:58.409Z,9.40
2019-05-25T18:13:30.114Z,5.47
2019-05-25T18:16:01.961Z,5.87
2019-05-25T18:18:33.845Z,5.67
2019-05-25T18:21:05.894Z,4.40
2019-05-25T18:23:37.828Z,6.50
2019-05-25T18:26:12.237Z,6.63
2019-05-25T18:28:43.964Z,6.10
2019-05-25T18:31:15.999Z,5.07
2019-05-25T18:33:47.701Z,9.30
2019-05-25T18:36:19.668Z,4.57
2019-05-25T18:38:54.895Z,3.53
2019-05-25T18:41:27.072Z,6.83
2019-05-25T18:43:59.271Z,3.00
2019-05-25T18:46:31.010Z,11.70
2019-05-25T18:49:02.981Z,3.37
2019-05-25T18:51:34.950Z,3.90
2019-05-25T18:54:06.774Z,3.80
2019-05-25T18:56:38.637Z,9.90
2019-05-25T18:59:10.603Z,4.53
2019-05-25T19:01:42.621Z,4.30
2019-05-25T19:04:14.400Z,5.20
2019-05-25T19:06:46.327Z,3.70
2019-05-25T19:09:18.975Z,3.10
2019-05-25T19:11:50.947Z,7.30
2019-05-25T19:14:23.068Z,8.10
2019-05-25T19:16:55.383Z,4.10
2019-05-25T19:19:27.276Z,3.60
2019-05-25T19:21:58.984Z,4.30
2019-05-25T19:24:30.772Z,4.93
2019-05-25T19:27:02.729Z,4.67
2019-05-25T19:29:34.880Z,3.80
2019-05-25T19:32:06.751Z,3.10
2019-05-25T19:34:38.660Z,6.50
2019-05-25T19:37:10.805Z,3.57
2019-05-25T19:39:44.475Z,5.83
2019-05-25T19:42:16.315Z,2.93
2019-05-25T19:44:48.063Z,4.07
2019-05-25T19:47:22.865Z,8.73
2019-05-25T19:49:55.391Z,5.50
2019-05-25T19:52:27.389Z,6.40
2019-05-25T19:54:59.293Z,5.40
2019-05-25T19:57:31.182Z,6.27
2019-05-25T20:00:03.278Z,2.80
2019-05-25T20:02:35.795Z,5.70
2019-05-25T20:05:16.530Z,5.23
2019-05-25T20:07:44.206Z,9.30
2019-05-25T20:10:18.146Z,3.47
2019-05-25T20:12:51.114Z,3.93
2019-05-25T20:16:51.727Z,3.90
2019-05-25T20:19:41.291Z,5.13
2019-05-25T20:22:14.045Z,3.87
2019-05-25T20:24:46.512Z,4.40
2019-05-25T20:27:18.512Z,6.97
2019-05-25T20:29:54.034Z,5.37
2019-05-25T20:32:27.370Z,3.53
2019-05-25T20:35:00.220Z,5.10
2019-05-25T20:37:32.199Z,4.43
2019-05-25T20:40:04.602Z,3.53
2019-05-25T20:42:39.114Z,4.80
2019-05-25T20:45:11.264Z,4.33
2019-05-25T20:47:43.344Z,6.20
2019-05-25T20:50:15.534Z,4.57
2019-05-25T20:52:47.412Z,3.20
2019-05-25T20:55:19.513Z,4.43
2019-05-25T20:57:51.604Z,5.30
2019-05-25T21:00:24.393Z,5.00
2019-05-25T21:03:05.889Z,6.60
2019-05-25T21:05:30.351Z,3.87
2019-05-25T21:08:02.405Z,4.63
2019-05-25T21:10:34.267Z,9.33
2019-05-25T21:13:06.019Z,3.50
2019-05-25T21:15:37.795Z,5.30
2019-05-25T21:18:09.781Z,8.10
2019-05-25T21:20:42.413Z,5.67
2019-05-25T21:23:17.082Z,5.43
2019-05-25T21:25:49.052Z,3.17
2019-05-25T21:28:20.832Z,7.00
2019-05-25T21:30:52.629Z,4.93
2019-05-25T21:33:24.312Z,6.30
2019-05-25T21:36:07.607Z,6.33
2019-05-25T21:38:29.752Z,5.20
2019-05-25T21:41:01.614Z,6.00
2019-05-25T21:43:33.863Z,3.67
2019-05-25T21:46:05.950Z,5.90
2019-05-25T21:48:37.812Z,3.67
2019-05-25T21:51:10.581Z,3.67
2019-05-25T21:53:44.389Z,6.80
2019-05-25T21:56:16.542Z,7.33
2019-05-25T21:58:49.397Z,7.03
2019-05-25T22:01:21.256Z,12.20
2019-05-25T22:03:53.024Z,3.83
2019-05-25T22:06:25.512Z,9.50
2019-05-25T22:08:57.526Z,5.17
2019-05-25T22:11:29.540Z,5.13
2019-05-25T22:14:09.097Z,10.80
2019-05-25T22:16:43.841Z,5.23
2019-05-25T22:19:16.965Z,6.70
2019-05-25T22:21:56.586Z,4.30
2019-05-25T22:24:34.787Z,4.63
2019-05-25T22:27:13.636Z,4.50
2019-05-25T22:29:51.725Z,11.90
2019-05-25T22:32:26.104Z,6.53
2019-05-25T22:35:03.227Z,5.20
2019-05-25T22:37:41.009Z,8.60
2019-05-25T22:40:15.776Z,6.17
2019-05-25T22:42:50.407Z,4.87
2019-05-25T22:45:24.533Z,7.43
2019-05-25T22:48:02.627Z,7.23
2019-05-25T22:50:36.983Z,6.40
2019-05-25T22:53:10.226Z,5.43
2019-05-25T22:55:44.174Z,3.90
2019-05-25T22:58:17.655Z,4.20
2019-05-25T23:00:50.437Z,5.83
2019-05-25T23:03:23.384Z,5.77
2019-05-25T23:05:55.880Z,5.10
2019-05-25T23:08:28.560Z,6.53
2019-05-25T23:11:00.983Z,6.10
2019-05-25T23:13:32.751Z,6.17
2019-05-25T23:16:04.641Z,4.50
2019-05-25T23:18:36.359Z,6.80
2019-05-25T23:21:09.004Z,6.33
2019-05-25T23:23:40.877Z,13.57
2019-05-25T23:26:12.813Z,6.53
2019-05-25T23:28:44.863Z,4.67
2019-05-25T23:31:16.565Z,7.13
2019-05-25T23:33:48.201Z,5.03
2019-05-25T23:36:19.817Z,6.80
2019-05-25T23:38:51.498Z,4.87
2019-05-25T23:41:23.115Z,7.00
2019-05-25T23:43:59.771Z,8.60
2019-05-25T23:46:29.907Z,6.77
2019-05-25T23:49:01.526Z,5.90
2019-05-25T23:51:33.204Z,4.83
2019-05-25T23:54:04.821Z,7.63
2019-05-25T23:56:36.415Z,6.63
2019-05-25T23:59:08.053Z,13.57
